sensor_id;sensor_type;location;lat;lon;timestamp;temperature;humidity
58809;DHT22;44579;51.672;7.834;2022-09-16T00:00:57;14.80;75.20
58809;DHT22;44579;51.672;7.834;2022-09-16T00:03:24;14.80;75.20
58809;DHT22;44579;51.672;7.834;2022-09-16T00:05:52;14.80;75.20
58809;DHT22;44579;51.672;7.834;2022-09-16T00:08:20;14.80;75.10
58809;DHT22;44579;51.672;7.834;2022-09-16T00:10:49;14.90;75.10
58809;DHT22;44579;51.672;7.834;2022-09-16T00:13:16;14.90;75.10
58809;DHT22;44579;51.672;7.834;2022-09-16T00:15:46;14.90;75.00
58809;DHT22;44579;51.672;7.834;2022-09-16T00:18:13;14.90;75.10
58809;DHT22;44579;51.672;7.834;2022-09-16T00:20:49;14.90;75.00
58809;DHT22;44579;51.672;7.834;2022-09-16T00:23:20;14.90;75.80
58809;DHT22;44579;51.672;7.834;2022-09-16T00:25:52;14.90;75.10
58809;DHT22;44579;51.672;7.834;2022-09-16T00:28:22;14.90;75.20
58809;DHT22;44579;51.672;7.834;2022-09-16T00:30:49;14.90;75.20
58809;DHT22;44579;51.672;7.834;2022-09-16T00:33:17;14.90;75.30
58809;DHT22;44579;51.672;7.834;2022-09-16T00:35:44;14.80;75.20
58809;DHT22;44579;51.672;7.834;2022-09-16T00:38:12;14.70;75.50
58809;DHT22;44579;51.672;7.834;2022-09-16T00:40:47;14.60;75.70
58809;DHT22;44579;51.672;7.834;2022-09-16T00:43:16;14.60;75.70
58809;DHT22;44579;51.672;7.834;2022-09-16T00:45:47;14.50;75.80
58809;DHT22;44579;51.672;7.834;2022-09-16T00:48:21;14.50;76.80
58809;DHT22;44579;51.672;7.834;2022-09-16T00:50:53;14.50;76.00
58809;DHT22;44579;51.672;7.834;2022-09-16T00:53:25;14.40;75.80
58809;DHT22;44579;51.672;7.834;2022-09-16T00:55:55;14.40;75.80
58809;DHT22;44579;51.672;7.834;2022-09-16T00:58:42;14.50;76.00
58809;DHT22;44579;51.672;7.834;2022-09-16T01:01:10;14.40;76.00
58809;DHT22;44579;51.672;7.834;2022-09-16T01:03:45;14.30;76.00
58809;DHT22;44579;51.672;7.834;2022-09-16T01:06:15;14.30;76.10
58809;DHT22;44579;51.672;7.834;2022-09-16T01:08:44;14.30;76.10
58809;DHT22;44579;51.672;7.834;2022-09-16T01:11:11;14.30;76.10
58809;DHT22;44579;51.672;7.834;2022-09-16T01:13:39;14.30;76.10
58809;DHT22;44579;51.672;7.834;2022-09-16T01:19:19;14.30;75.90
58809;DHT22;44579;51.672;7.834;2022-09-16T01:30:41;14.30;75.90
58809;DHT22;44579;51.672;7.834;2022-09-16T01:36:30;14.30;75.90
58809;DHT22;44579;51.672;7.834;2022-09-16T01:39:17;14.40;76.00
58809;DHT22;44579;51.672;7.834;2022-09-16T01:44:46;14.40;76.00
58809;DHT22;44579;51.672;7.834;2022-09-16T01:47:28;14.40;75.80
58809;DHT22;44579;51.672;7.834;2022-09-16T01:55:38;14.40;75.80
58809;DHT22;44579;51.672;7.834;2022-09-16T01:58:18;14.30;76.00
58809;DHT22;44579;51.672;7.834;2022-09-16T02:00:50;14.30;76.10
58809;DHT22;44579;51.672;7.834;2022-09-16T02:03:23;14.40;76.10
58809;DHT22;44579;51.672;7.834;2022-09-16T02:05:59;14.40;76.00
58809;DHT22;44579;51.672;7.834;2022-09-16T02:08:50;14.40;76.00
58809;DHT22;44579;51.672;7.834;2022-09-16T02:11:20;14.40;76.00
58809;DHT22;44579;51.672;7.834;2022-09-16T02:13:48;14.40;76.00
58809;DHT22;44579;51.672;7.834;2022-09-16T02:16:34;14.40;76.10
58809;DHT22;44579;51.672;7.834;2022-09-16T02:19:09;14.30;76.40
58809;DHT22;44579;51.672;7.834;2022-09-16T02:21:40;14.30;76.50
58809;DHT22;44579;51.672;7.834;2022-09-16T02:24:16;14.30;76.60
58809;DHT22;44579;51.672;7.834;2022-09-16T02:26:49;14.30;77.40
58809;DHT22;44579;51.672;7.834;2022-09-16T02:29:24;14.30;76.50
58809;DHT22;44579;51.672;7.834;2022-09-16T02:31:55;14.20;76.40
58809;DHT22;44579;51.672;7.834;2022-09-16T02:34:31;14.20;76.40
58809;DHT22;44579;51.672;7.834;2022-09-16T02:37:04;14.20;76.40
58809;DHT22;44579;51.672;7.834;2022-09-16T02:39:36;14.20;76.50
58809;DHT22;44579;51.672;7.834;2022-09-16T02:42:04;14.10;76.50
58809;DHT22;44579;51.672;7.834;2022-09-16T02:44:32;14.10;76.50
58809;DHT22;44579;51.672;7.834;2022-09-16T02:47:14;14.10;76.60
58809;DHT22;44579;51.672;7.834;2022-09-16T02:49:52;14.10;76.60
58809;DHT22;44579;51.672;7.834;2022-09-16T02:52:54;14.10;76.70
58809;DHT22;44579;51.672;7.834;2022-09-16T02:55:52;14.10;76.60
58809;DHT22;44579;51.672;7.834;2022-09-16T02:58:20;14.20;76.60
58809;DHT22;44579;51.672;7.834;2022-09-16T03:00:50;14.10;76.50
58809;DHT22;44579;51.672;7.834;2022-09-16T03:03:21;14.10;76.50
58809;DHT22;44579;51.672;7.834;2022-09-16T03:08:26;14.10;76.60
58809;DHT22;44579;51.672;7.834;2022-09-16T03:10:53;14.10;76.50
58809;DHT22;44579;51.672;7.834;2022-09-16T03:13:44;14.10;76.50
58809;DHT22;44579;51.672;7.834;2022-09-16T03:16:23;14.10;76.50
58809;DHT22;44579;51.672;7.834;2022-09-16T03:22:08;14.10;76.70
58809;DHT22;44579;51.672;7.834;2022-09-16T03:27:30;14.00;77.00
58809;DHT22;44579;51.672;7.834;2022-09-16T03:30:05;14.00;76.90
58809;DHT22;44579;51.672;7.834;2022-09-16T03:32:37;14.00;76.80
58809;DHT22;44579;51.672;7.834;2022-09-16T03:37:47;14.00;77.00
58809;DHT22;44579;51.672;7.834;2022-09-16T03:40:17;14.00;77.00
58809;DHT22;44579;51.672;7.834;2022-09-16T03:42:45;14.00;77.00
58809;DHT22;44579;51.672;7.834;2022-09-16T03:45:15;14.00;76.90
58809;DHT22;44579;51.672;7.834;2022-09-16T03:47:44;14.10;77.00
58809;DHT22;44579;51.672;7.834;2022-09-16T03:50:12;14.00;77.00
58809;DHT22;44579;51.672;7.834;2022-09-16T03:52:40;14.00;77.00
58809;DHT22;44579;51.672;7.834;2022-09-16T03:55:07;14.00;77.00
58809;DHT22;44579;51.672;7.834;2022-09-16T03:57:37;14.00;77.20
58809;DHT22;44579;51.672;7.834;2022-09-16T04:00:04;14.00;78.10
58809;DHT22;44579;51.672;7.834;2022-09-16T04:02:37;14.00;77.30
58809;DHT22;44579;51.672;7.834;2022-09-16T04:05:04;13.90;77.50
58809;DHT22;44579;51.672;7.834;2022-09-16T04:07:32;13.90;77.40
58809;DHT22;44579;51.672;7.834;2022-09-16T04:09:59;13.90;77.40
58809;DHT22;44579;51.672;7.834;2022-09-16T04:12:27;14.00;77.40
58809;DHT22;44579;51.672;7.834;2022-09-16T04:14:54;14.00;77.30
58809;DHT22;44579;51.672;7.834;2022-09-16T04:17:21;14.00;77.30
58809;DHT22;44579;51.672;7.834;2022-09-16T04:19:48;14.00;77.30
58809;DHT22;44579;51.672;7.834;2022-09-16T04:22:15;14.00;77.30
58809;DHT22;44579;51.672;7.834;2022-09-16T04:24:42;14.00;77.30
58809;DHT22;44579;51.672;7.834;2022-09-16T04:27:09;13.90;77.30
58809;DHT22;44579;51.672;7.834;2022-09-16T04:29:36;13.90;77.30
58809;DHT22;44579;51.672;7.834;2022-09-16T04:32:03;13.90;77.30
58809;DHT22;44579;51.672;7.834;2022-09-16T04:34:30;13.90;77.40
58809;DHT22;44579;51.672;7.834;2022-09-16T04:36:58;13.90;77.40
58809;DHT22;44579;51.672;7.834;2022-09-16T04:39:25;13.90;77.40
58809;DHT22;44579;51.672;7.834;2022-09-16T04:41:52;13.90;77.40
58809;DHT22;44579;51.672;7.834;2022-09-16T04:44:19;13.90;77.40
58809;DHT22;44579;51.672;7.834;2022-09-16T04:46:46;13.90;77.30
58809;DHT22;44579;51.672;7.834;2022-09-16T04:49:13;13.90;77.40
58809;DHT22;44579;51.672;7.834;2022-09-16T04:51:40;13.90;77.40
58809;DHT22;44579;51.672;7.834;2022-09-16T04:54:07;13.90;77.40
58809;DHT22;44579;51.672;7.834;2022-09-16T04:56:35;13.90;77.50
58809;DHT22;44579;51.672;7.834;2022-09-16T04:59:03;13.90;77.40
58809;DHT22;44579;51.672;7.834;2022-09-16T05:01:35;13.90;77.40
58809;DHT22;44579;51.672;7.834;2022-09-16T05:04:04;13.90;77.40
58809;DHT22;44579;51.672;7.834;2022-09-16T05:06:34;13.90;77.40
58809;DHT22;44579;51.672;7.834;2022-09-16T05:09:02;13.90;77.50
58809;DHT22;44579;51.672;7.834;2022-09-16T05:11:31;13.90;77.40
58809;DHT22;44579;51.672;7.834;2022-09-16T05:14:04;13.90;77.40
58809;DHT22;44579;51.672;7.834;2022-09-16T05:16:32;13.80;77.60
58809;DHT22;44579;51.672;7.834;2022-09-16T05:18:59;13.80;77.50
58809;DHT22;44579;51.672;7.834;2022-09-16T05:21:27;13.70;77.60
58809;DHT22;44579;51.672;7.834;2022-09-16T05:23:58;13.70;77.80
58809;DHT22;44579;51.672;7.834;2022-09-16T05:26:27;13.70;77.80
58809;DHT22;44579;51.672;7.834;2022-09-16T05:28:55;13.70;77.80
58809;DHT22;44579;51.672;7.834;2022-09-16T05:31:24;13.80;77.80
58809;DHT22;44579;51.672;7.834;2022-09-16T05:34:00;13.70;77.80
58809;DHT22;44579;51.672;7.834;2022-09-16T05:36:30;13.70;77.80
58809;DHT22;44579;51.672;7.834;2022-09-16T05:38:57;13.80;77.80
58809;DHT22;44579;51.672;7.834;2022-09-16T05:41:45;13.90;77.80
58809;DHT22;44579;51.672;7.834;2022-09-16T05:44:12;13.90;77.80
58809;DHT22;44579;51.672;7.834;2022-09-16T05:46:39;14.00;77.80
58809;DHT22;44579;51.672;7.834;2022-09-16T05:49:07;13.90;78.00
58809;DHT22;44579;51.672;7.834;2022-09-16T05:51:36;14.00;78.10
58809;DHT22;44579;51.672;7.834;2022-09-16T05:54:04;14.00;78.10
58809;DHT22;44579;51.672;7.834;2022-09-16T05:56:31;14.00;78.10
58809;DHT22;44579;51.672;7.834;2022-09-16T05:58:59;14.10;78.20
58809;DHT22;44579;51.672;7.834;2022-09-16T06:01:29;14.00;78.10
58809;DHT22;44579;51.672;7.834;2022-09-16T06:03:58;14.00;78.20
58809;DHT22;44579;51.672;7.834;2022-09-16T06:06:36;14.00;78.20
58809;DHT22;44579;51.672;7.834;2022-09-16T06:09:07;13.90;78.20
58809;DHT22;44579;51.672;7.834;2022-09-16T06:11:36;13.90;78.30
58809;DHT22;44579;51.672;7.834;2022-09-16T06:14:04;13.90;78.30
58809;DHT22;44579;51.672;7.834;2022-09-16T06:16:31;13.90;78.40
58809;DHT22;44579;51.672;7.834;2022-09-16T06:18:59;13.90;78.60
58809;DHT22;44579;51.672;7.834;2022-09-16T06:21:29;13.90;78.90
58809;DHT22;44579;51.672;7.834;2022-09-16T06:23:56;13.80;78.90
58809;DHT22;44579;51.672;7.834;2022-09-16T06:26:25;13.90;78.90
58809;DHT22;44579;51.672;7.834;2022-09-16T06:28:53;13.90;78.70
58809;DHT22;44579;51.672;7.834;2022-09-16T06:31:23;14.00;78.70
58809;DHT22;44579;51.672;7.834;2022-09-16T06:33:51;14.00;78.70
58809;DHT22;44579;51.672;7.834;2022-09-16T06:36:21;13.90;78.90
58809;DHT22;44579;51.672;7.834;2022-09-16T06:38:48;13.90;79.10
58809;DHT22;44579;51.672;7.834;2022-09-16T06:41:18;13.90;79.00
58809;DHT22;44579;51.672;7.834;2022-09-16T06:43:46;13.90;79.00
58809;DHT22;44579;51.672;7.834;2022-09-16T06:46:16;13.90;78.90
58809;DHT22;44579;51.672;7.834;2022-09-16T06:48:49;13.90;78.90
58809;DHT22;44579;51.672;7.834;2022-09-16T06:51:22;14.00;79.00
58809;DHT22;44579;51.672;7.834;2022-09-16T06:53:52;14.10;78.90
58809;DHT22;44579;51.672;7.834;2022-09-16T06:56:20;14.10;78.90
58809;DHT22;44579;51.672;7.834;2022-09-16T06:58:49;14.10;78.80
58809;DHT22;44579;51.672;7.834;2022-09-16T07:01:27;14.20;78.60
58809;DHT22;44579;51.672;7.834;2022-09-16T07:03:57;14.30;78.60
58809;DHT22;44579;51.672;7.834;2022-09-16T07:06:27;14.30;78.60
58809;DHT22;44579;51.672;7.834;2022-09-16T07:09:15;14.40;78.80
58809;DHT22;44579;51.672;7.834;2022-09-16T07:11:42;14.40;78.90
58809;DHT22;44579;51.672;7.834;2022-09-16T07:14:10;14.40;78.90
58809;DHT22;44579;51.672;7.834;2022-09-16T07:16:37;14.30;79.00
58809;DHT22;44579;51.672;7.834;2022-09-16T07:19:04;14.40;79.00
58809;DHT22;44579;51.672;7.834;2022-09-16T07:21:31;14.50;79.00
58809;DHT22;44579;51.672;7.834;2022-09-16T07:23:59;14.50;78.90
58809;DHT22;44579;51.672;7.834;2022-09-16T07:26:30;14.50;78.90
58809;DHT22;44579;51.672;7.834;2022-09-16T07:28:59;14.60;79.00
58809;DHT22;44579;51.672;7.834;2022-09-16T07:31:28;14.60;79.00
58809;DHT22;44579;51.672;7.834;2022-09-16T07:33:57;14.60;79.10
58809;DHT22;44579;51.672;7.834;2022-09-16T07:36:35;14.60;79.10
58809;DHT22;44579;51.672;7.834;2022-09-16T07:39:04;14.60;79.10
58809;DHT22;44579;51.672;7.834;2022-09-16T07:41:36;14.70;79.00
58809;DHT22;44579;51.672;7.834;2022-09-16T07:44:05;14.70;79.00
58809;DHT22;44579;51.672;7.834;2022-09-16T07:46:34;14.70;79.00
58809;DHT22;44579;51.672;7.834;2022-09-16T07:49:03;14.70;79.00
58809;DHT22;44579;51.672;7.834;2022-09-16T07:51:31;14.70;79.10
58809;DHT22;44579;51.672;7.834;2022-09-16T07:54:01;14.70;79.10
58809;DHT22;44579;51.672;7.834;2022-09-16T07:56:31;14.70;79.10
58809;DHT22;44579;51.672;7.834;2022-09-16T07:59:01;14.70;79.10
58809;DHT22;44579;51.672;7.834;2022-09-16T08:01:28;14.70;79.10
58809;DHT22;44579;51.672;7.834;2022-09-16T08:03:57;14.70;79.00
58809;DHT22;44579;51.672;7.834;2022-09-16T08:06:25;14.60;79.00
58809;DHT22;44579;51.672;7.834;2022-09-16T08:08:55;14.60;79.90
58809;DHT22;44579;51.672;7.834;2022-09-16T08:11:29;14.50;79.30
58809;DHT22;44579;51.672;7.834;2022-09-16T08:13:59;14.50;79.20
58809;DHT22;44579;51.672;7.834;2022-09-16T08:16:26;14.60;79.10
58809;DHT22;44579;51.672;7.834;2022-09-16T08:18:55;14.60;79.10
58809;DHT22;44579;51.672;7.834;2022-09-16T08:21:25;14.60;79.10
58809;DHT22;44579;51.672;7.834;2022-09-16T08:23:52;14.60;78.80
58809;DHT22;44579;51.672;7.834;2022-09-16T08:26:20;14.70;78.60
58809;DHT22;44579;51.672;7.834;2022-09-16T08:28:47;14.80;78.50
58809;DHT22;44579;51.672;7.834;2022-09-16T08:31:35;14.80;78.20
58809;DHT22;44579;51.672;7.834;2022-09-16T08:34:05;14.80;78.10
58809;DHT22;44579;51.672;7.834;2022-09-16T08:36:32;14.90;77.80
58809;DHT22;44579;51.672;7.834;2022-09-16T08:39:00;14.90;77.30
58809;DHT22;44579;51.672;7.834;2022-09-16T08:44:53;14.90;77.50
58809;DHT22;44579;51.672;7.834;2022-09-16T08:48:09;15.00;77.50
58809;DHT22;44579;51.672;7.834;2022-09-16T08:50:43;15.10;77.70
58809;DHT22;44579;51.672;7.834;2022-09-16T08:54:39;15.20;77.50
58809;DHT22;44579;51.672;7.834;2022-09-16T08:56:33;15.30;77.20
58809;DHT22;44579;51.672;7.834;2022-09-16T08:59:10;15.40;77.20
58809;DHT22;44579;51.672;7.834;2022-09-16T09:01:48;15.40;76.80
58809;DHT22;44579;51.672;7.834;2022-09-16T09:04:16;15.40;76.00
58809;DHT22;44579;51.672;7.834;2022-09-16T09:06:57;15.40;75.80
58809;DHT22;44579;51.672;7.834;2022-09-16T09:09:35;15.40;76.00
58809;DHT22;44579;51.672;7.834;2022-09-16T09:12:17;15.40;75.50
58809;DHT22;44579;51.672;7.834;2022-09-16T09:15:00;15.40;75.70
58809;DHT22;44579;51.672;7.834;2022-09-16T09:26:20;15.60;74.20
58809;DHT22;44579;51.672;7.834;2022-09-16T09:29:17;15.60;73.10
58809;DHT22;44579;51.672;7.834;2022-09-16T09:42:48;15.90;72.20
58809;DHT22;44579;51.672;7.834;2022-09-16T09:45:23;15.90;70.70
58809;DHT22;44579;51.672;7.834;2022-09-16T09:47:55;16.00;70.60
58809;DHT22;44579;51.672;7.834;2022-09-16T09:50:39;16.10;67.70
58809;DHT22;44579;51.672;7.834;2022-09-16T09:55:39;16.20;66.20
58809;DHT22;44579;51.672;7.834;2022-09-16T10:00:50;16.30;67.10
58809;DHT22;44579;51.672;7.834;2022-09-16T10:03:21;16.30;65.50
58809;DHT22;44579;51.672;7.834;2022-09-16T10:05:48;16.20;65.50
58809;DHT22;44579;51.672;7.834;2022-09-16T10:08:21;16.20;66.40
58809;DHT22;44579;51.672;7.834;2022-09-16T10:10:52;16.20;67.00
58809;DHT22;44579;51.672;7.834;2022-09-16T10:13:21;16.20;66.80
58809;DHT22;44579;51.672;7.834;2022-09-16T10:15:51;16.30;65.70
58809;DHT22;44579;51.672;7.834;2022-09-16T10:18:23;16.40;65.60
58809;DHT22;44579;51.672;7.834;2022-09-16T10:21:06;16.40;65.90
58809;DHT22;44579;51.672;7.834;2022-09-16T10:23:34;16.50;67.00
58809;DHT22;44579;51.672;7.834;2022-09-16T10:26:17;16.60;66.30
58809;DHT22;44579;51.672;7.834;2022-09-16T10:28:56;16.70;65.60
58809;DHT22;44579;51.672;7.834;2022-09-16T10:31:27;16.70;63.90
58809;DHT22;44579;51.672;7.834;2022-09-16T10:34:01;16.70;63.50
58809;DHT22;44579;51.672;7.834;2022-09-16T10:36:32;16.80;63.60
58809;DHT22;44579;51.672;7.834;2022-09-16T10:39:01;16.90;63.50
58809;DHT22;44579;51.672;7.834;2022-09-16T10:44:19;17.30;64.40
58809;DHT22;44579;51.672;7.834;2022-09-16T10:46:57;17.40;63.60
58809;DHT22;44579;51.672;7.834;2022-09-16T10:49:46;17.50;64.00
58809;DHT22;44579;51.672;7.834;2022-09-16T10:52:22;17.50;63.70
58809;DHT22;44579;51.672;7.834;2022-09-16T10:54:49;17.50;64.10
58809;DHT22;44579;51.672;7.834;2022-09-16T10:57:28;17.50;64.60
58809;DHT22;44579;51.672;7.834;2022-09-16T11:00:13;17.40;65.00
58809;DHT22;44579;51.672;7.834;2022-09-16T11:05:42;17.30;65.80
58809;DHT22;44579;51.672;7.834;2022-09-16T11:14:05;17.10;67.10
58809;DHT22;44579;51.672;7.834;2022-09-16T11:30:20;16.40;66.90
58809;DHT22;44579;51.672;7.834;2022-09-16T11:33:00;16.30;67.20
58809;DHT22;44579;51.672;7.834;2022-09-16T11:38:35;16.20;67.30
58809;DHT22;44579;51.672;7.834;2022-09-16T11:41:31;16.20;67.40
58809;DHT22;44579;51.672;7.834;2022-09-16T11:47:08;16.30;67.70
58809;DHT22;44579;51.672;7.834;2022-09-16T11:52:12;16.30;68.20
58809;DHT22;44579;51.672;7.834;2022-09-16T11:58:00;16.50;67.60
58809;DHT22;44579;51.672;7.834;2022-09-16T12:00:30;16.60;67.60
58809;DHT22;44579;51.672;7.834;2022-09-16T12:03:12;16.60;68.00
58809;DHT22;44579;51.672;7.834;2022-09-16T12:05:46;16.50;68.40
58809;DHT22;44579;51.672;7.834;2022-09-16T12:08:30;16.40;68.60
58809;DHT22;44579;51.672;7.834;2022-09-16T12:13:44;16.20;68.80
58809;DHT22;44579;51.672;7.834;2022-09-16T12:16:19;16.20;68.70
58809;DHT22;44579;51.672;7.834;2022-09-16T12:18:54;16.20;68.70
58809;DHT22;44579;51.672;7.834;2022-09-16T12:23:58;16.30;68.20
58809;DHT22;44579;51.672;7.834;2022-09-16T12:26:35;16.30;68.20
58809;DHT22;44579;51.672;7.834;2022-09-16T12:29:55;16.40;68.40
58809;DHT22;44579;51.672;7.834;2022-09-16T12:32:46;16.50;68.40
58809;DHT22;44579;51.672;7.834;2022-09-16T12:35:20;16.60;68.50
58809;DHT22;44579;51.672;7.834;2022-09-16T12:37:52;16.70;68.50
58809;DHT22;44579;51.672;7.834;2022-09-16T12:40:23;16.80;68.20
58809;DHT22;44579;51.672;7.834;2022-09-16T12:43:04;16.90;68.00
58809;DHT22;44579;51.672;7.834;2022-09-16T12:45:45;16.90;67.00
58809;DHT22;44579;51.672;7.834;2022-09-16T12:48:41;16.80;67.20
58809;DHT22;44579;51.672;7.834;2022-09-16T12:51:35;16.70;67.40
58809;DHT22;44579;51.672;7.834;2022-09-16T12:54:11;16.60;67.50
58809;DHT22;44579;51.672;7.834;2022-09-16T12:57:25;16.50;67.50
58809;DHT22;44579;51.672;7.834;2022-09-16T13:02:59;16.50;68.10
58809;DHT22;44579;51.672;7.834;2022-09-16T13:05:33;16.30;67.60
58809;DHT22;44579;51.672;7.834;2022-09-16T13:08:13;16.20;67.90
58809;DHT22;44579;51.672;7.834;2022-09-16T13:10:44;16.10;68.20
58809;DHT22;44579;51.672;7.834;2022-09-16T13:13:35;15.90;68.30
58809;DHT22;44579;51.672;7.834;2022-09-16T13:16:05;15.80;68.40
58809;DHT22;44579;51.672;7.834;2022-09-16T13:18:48;15.80;68.40
58809;DHT22;44579;51.672;7.834;2022-09-16T13:21:30;15.70;68.30
58809;DHT22;44579;51.672;7.834;2022-09-16T13:26:44;15.70;68.20
58809;DHT22;44579;51.672;7.834;2022-09-16T13:29:39;15.70;68.20
58809;DHT22;44579;51.672;7.834;2022-09-16T13:32:35;15.80;67.80
58809;DHT22;44579;51.672;7.834;2022-09-16T13:37:50;15.80;67.50
58809;DHT22;44579;51.672;7.834;2022-09-16T13:40:23;15.90;67.50
58809;DHT22;44579;51.672;7.834;2022-09-16T13:43:48;15.90;67.20
58809;DHT22;44579;51.672;7.834;2022-09-16T13:46:09;16.10;66.80
58809;DHT22;44579;51.672;7.834;2022-09-16T13:48:38;16.10;66.70
58809;DHT22;44579;51.672;7.834;2022-09-16T13:51:12;16.20;66.90
58809;DHT22;44579;51.672;7.834;2022-09-16T13:53:58;16.20;66.90
58809;DHT22;44579;51.672;7.834;2022-09-16T14:05:09;16.50;64.60
58809;DHT22;44579;51.672;7.834;2022-09-16T14:10:24;16.60;63.60
58809;DHT22;44579;51.672;7.834;2022-09-16T14:13:04;16.70;63.40
58809;DHT22;44579;51.672;7.834;2022-09-16T14:15:43;16.80;62.10
58809;DHT22;44579;51.672;7.834;2022-09-16T14:18:13;16.80;62.60
58809;DHT22;44579;51.672;7.834;2022-09-16T14:23:25;16.80;63.40
58809;DHT22;44579;51.672;7.834;2022-09-16T14:25:52;16.80;63.30
58809;DHT22;44579;51.672;7.834;2022-09-16T14:28:27;16.90;63.50
58809;DHT22;44579;51.672;7.834;2022-09-16T14:31:05;16.90;63.50
58809;DHT22;44579;51.672;7.834;2022-09-16T14:33:36;16.80;63.60
58809;DHT22;44579;51.672;7.834;2022-09-16T14:36:13;16.70;64.00
58809;DHT22;44579;51.672;7.834;2022-09-16T14:38:48;16.70;65.10
58809;DHT22;44579;51.672;7.834;2022-09-16T14:41:37;16.70;64.40
58809;DHT22;44579;51.672;7.834;2022-09-16T14:50:12;16.60;65.00
58809;DHT22;44579;51.672;7.834;2022-09-16T14:52:40;16.40;65.20
58809;DHT22;44579;51.672;7.834;2022-09-16T14:55:22;16.40;65.50
58809;DHT22;44579;51.672;7.834;2022-09-16T14:57:50;16.30;65.60
58809;DHT22;44579;51.672;7.834;2022-09-16T15:00:17;16.30;65.70
58809;DHT22;44579;51.672;7.834;2022-09-16T15:03:04;16.30;65.80
58809;DHT22;44579;51.672;7.834;2022-09-16T15:05:34;16.40;65.70
58809;DHT22;44579;51.672;7.834;2022-09-16T15:08:31;16.40;65.70
58809;DHT22;44579;51.672;7.834;2022-09-16T15:11:01;16.40;65.50
58809;DHT22;44579;51.672;7.834;2022-09-16T15:13:34;16.30;65.60
58809;DHT22;44579;51.672;7.834;2022-09-16T15:16:14;16.30;65.60
58809;DHT22;44579;51.672;7.834;2022-09-16T15:23:53;16.40;65.40
58809;DHT22;44579;51.672;7.834;2022-09-16T15:26:24;16.40;65.50
58809;DHT22;44579;51.672;7.834;2022-09-16T15:28:57;16.30;65.50
58809;DHT22;44579;51.672;7.834;2022-09-16T15:31:38;16.30;65.50
58809;DHT22;44579;51.672;7.834;2022-09-16T15:36:46;16.20;65.50
58809;DHT22;44579;51.672;7.834;2022-09-16T15:42:18;16.10;65.60
58809;DHT22;44579;51.672;7.834;2022-09-16T15:45:01;16.10;65.60
58809;DHT22;44579;51.672;7.834;2022-09-16T15:47:37;16.10;65.70
58809;DHT22;44579;51.672;7.834;2022-09-16T15:50:14;16.10;65.80
58809;DHT22;44579;51.672;7.834;2022-09-16T15:53:08;16.20;65.90
58809;DHT22;44579;51.672;7.834;2022-09-16T15:55:43;16.20;65.80
58809;DHT22;44579;51.672;7.834;2022-09-16T15:58:33;16.20;66.00
58809;DHT22;44579;51.672;7.834;2022-09-16T16:01:12;16.20;66.00
58809;DHT22;44579;51.672;7.834;2022-09-16T16:06:13;16.50;66.10
58809;DHT22;44579;51.672;7.834;2022-09-16T16:11:18;16.60;66.00
58809;DHT22;44579;51.672;7.834;2022-09-16T16:13:47;16.60;66.00
58809;DHT22;44579;51.672;7.834;2022-09-16T16:16:16;16.60;66.00
58809;DHT22;44579;51.672;7.834;2022-09-16T16:18:44;16.60;66.20
58809;DHT22;44579;51.672;7.834;2022-09-16T16:21:14;16.60;67.20
58809;DHT22;44579;51.672;7.834;2022-09-16T16:23:42;16.60;66.60
58809;DHT22;44579;51.672;7.834;2022-09-16T16:26:10;16.60;66.70
58809;DHT22;44579;51.672;7.834;2022-09-16T16:28:37;16.50;67.70
58809;DHT22;44579;51.672;7.834;2022-09-16T16:31:13;16.40;66.90
58809;DHT22;44579;51.672;7.834;2022-09-16T16:33:44;16.30;67.00
58809;DHT22;44579;51.672;7.834;2022-09-16T16:36:17;16.20;67.10
58809;DHT22;44579;51.672;7.834;2022-09-16T16:38:44;16.20;67.10
58809;DHT22;44579;51.672;7.834;2022-09-16T16:41:23;16.20;68.10
58809;DHT22;44579;51.672;7.834;2022-09-16T16:43:50;16.10;67.20
58809;DHT22;44579;51.672;7.834;2022-09-16T16:46:17;16.20;67.30
58809;DHT22;44579;51.672;7.834;2022-09-16T16:48:45;16.20;67.30
58809;DHT22;44579;51.672;7.834;2022-09-16T16:51:13;16.20;67.20
58809;DHT22;44579;51.672;7.834;2022-09-16T16:53:40;16.20;67.20
58809;DHT22;44579;51.672;7.834;2022-09-16T16:56:11;16.20;67.10
58809;DHT22;44579;51.672;7.834;2022-09-16T16:58:41;16.20;67.00
58809;DHT22;44579;51.672;7.834;2022-09-16T17:01:16;16.30;67.00
58809;DHT22;44579;51.672;7.834;2022-09-16T17:03:45;16.30;66.70
58809;DHT22;44579;51.672;7.834;2022-09-16T17:06:13;16.30;66.70
58809;DHT22;44579;51.672;7.834;2022-09-16T17:08:41;16.30;66.40
58809;DHT22;44579;51.672;7.834;2022-09-16T17:11:13;16.40;66.30
58809;DHT22;44579;51.672;7.834;2022-09-16T17:13:42;16.50;65.90
58809;DHT22;44579;51.672;7.834;2022-09-16T17:16:10;16.40;65.60
58809;DHT22;44579;51.672;7.834;2022-09-16T17:18:39;16.20;65.50
58809;DHT22;44579;51.672;7.834;2022-09-16T17:21:11;16.10;65.60
58809;DHT22;44579;51.672;7.834;2022-09-16T17:23:39;16.00;65.80
58809;DHT22;44579;51.672;7.834;2022-09-16T17:26:07;15.90;65.80
58809;DHT22;44579;51.672;7.834;2022-09-16T17:28:39;15.80;66.00
58809;DHT22;44579;51.672;7.834;2022-09-16T17:31:10;15.60;65.80
58809;DHT22;44579;51.672;7.834;2022-09-16T17:33:37;15.50;66.10
58809;DHT22;44579;51.672;7.834;2022-09-16T17:36:06;15.40;66.10
58809;DHT22;44579;51.672;7.834;2022-09-16T17:38:35;15.40;66.20
58809;DHT22;44579;51.672;7.834;2022-09-16T17:41:05;15.30;66.20
58809;DHT22;44579;51.672;7.834;2022-09-16T17:43:33;15.20;66.10
58809;DHT22;44579;51.672;7.834;2022-09-16T17:46:03;15.20;66.10
58809;DHT22;44579;51.672;7.834;2022-09-16T17:48:31;15.20;66.10
58809;DHT22;44579;51.672;7.834;2022-09-16T17:50:58;15.10;66.00
58809;DHT22;44579;51.672;7.834;2022-09-16T17:53:26;15.00;66.00
58809;DHT22;44579;51.672;7.834;2022-09-16T17:56:03;15.00;66.20
58809;DHT22;44579;51.672;7.834;2022-09-16T17:58:31;15.00;66.20
58809;DHT22;44579;51.672;7.834;2022-09-16T18:01:07;14.90;66.20
58809;DHT22;44579;51.672;7.834;2022-09-16T18:03:34;14.90;66.10
58809;DHT22;44579;51.672;7.834;2022-09-16T18:06:13;14.90;66.10
58809;DHT22;44579;51.672;7.834;2022-09-16T18:08:43;14.90;66.10
58809;DHT22;44579;51.672;7.834;2022-09-16T18:11:13;14.80;66.00
58809;DHT22;44579;51.672;7.834;2022-09-16T18:13:40;14.80;66.90
58809;DHT22;44579;51.672;7.834;2022-09-16T18:16:11;14.70;66.10
58809;DHT22;44579;51.672;7.834;2022-09-16T18:18:40;14.70;66.10
58809;DHT22;44579;51.672;7.834;2022-09-16T18:21:10;14.60;66.10
58809;DHT22;44579;51.672;7.834;2022-09-16T18:23:37;14.60;66.20
58809;DHT22;44579;51.672;7.834;2022-09-16T18:26:06;14.60;66.30
58809;DHT22;44579;51.672;7.834;2022-09-16T18:28:38;14.50;66.30
58809;DHT22;44579;51.672;7.834;2022-09-16T18:31:25;14.40;66.40
58809;DHT22;44579;51.672;7.834;2022-09-16T18:33:53;14.40;66.50
58809;DHT22;44579;51.672;7.834;2022-09-16T18:36:22;14.40;66.60